Date,TemperatureHighF,TemperatureAvgF,TemperatureLowF,DewpointHighF,DewpointAvgF,DewpointLowF,HumidityHigh,HumidityAvg,HumidityLow,PressureMaxIn,PressureMinIn,WindSpeedMaxMPH,WindSpeedAvgMPH,GustSpeedMaxMPH,PrecipitationSumIn
2013-1-1,23.4,15.1,3.6,11.1,4.8,-0.4,83,64,41,29.81,29.67,14,4,14,0.00
2013-1-2,31.1,21.8,11.8,23.4,16.2,5.1,89,79,61,29.71,29.57,17,9,18,0.00
2013-1-3,34.9,24.8,14.0,26.4,18.9,10.9,95,79,59,29.89,29.70,21,7,22,0.00
2013-1-4,41.0,27.0,15.3,26.6,20.7,12.4,96,78,53,29.86,29.69,20,8,20,0.01
2013-1-5,44.1,35.2,26.6,34.5,28.4,19.6,98,77,64,29.68,29.49,24,12,24,0.02
2013-1-6,39.4,30.3,19.4,22.3,19.9,16.3,88,66,47,29.84,29.65,21,8,23,0.00
2013-1-7,49.5,39.5,26.1,27.5,25.1,19.5,76,57,38,29.71,29.50,26,11,26,0.00
2013-1-8,54.1,46.2,32.7,33.4,31.4,27.1,83,57,41,29.51,29.40,24,13,24,0.00
2013-1-9,59.4,45.5,32.0,35.2,29.8,22.8,85,57,25,29.91,29.66,11,5,11,0.00
2013-1-10,68.0,39.4,36.9,42.1,34.4,22.8,99,84,39,30.13,29.37,24,13,24,0.34
2013-1-11,53.4,52.4,41.5,48.9,46.8,41.3,99,82,79,29.76,29.59,29,19,29,0.01
2013-1-12,53.4,53.4,53.4,47.1,47.1,47.1,79,79,79,29.59,29.59,20,20,21,0.01
2013-1-13,53.4,53.4,53.4,47.1,47.1,47.1,79,79,79,29.59,29.59,20,20,21,0.01
2013-1-14,36.9,21.7,8.8,13.4,8.8,4.7,87,59,27,30.35,30.20,11,4,11,0.00
2013-1-15,19.6,19.0,18.3,11.9,11.5,10.4,74,72,69,30.25,30.23,4,3,4,0.00
2013-1-16,51.8,39.7,19.0,32.7,26.8,10.2,78,60,45,30.01,29.84,16,8,16,0.00
2013-1-17,48.4,35.0,23.7,30.1,22.7,19.0,99,64,39,30.32,30.07,13,6,13,0.00
2013-1-18,44.6,36.0,30.0,30.6,28.5,24.4,85,74,58,30.21,30.05,26,15,26,0.00
2013-1-19,60.8,45.8,33.8,32.2,29.1,23.7,77,55,24,30.13,29.78,23,12,23,0.00
2013-1-20,30.7,21.6,14.7,15.6,7.9,4.2,81,57,36,30.26,30.15,16,9,16,0.00
2013-1-21,14.7,12.4,11.1,9.8,-3.2,-11.1,84,50,35,30.30,30.22,20,8,22,0.00
2013-1-22,30.7,17.0,9.5,8.0,3.8,-4.7,75,56,37,30.27,30.13,12,6,14,0.00
2013-1-23,52.9,24.3,10.4,28.6,12.3,-22.4,85,63,10,30.32,30.05,20,9,20,0.00
2013-1-24,78.1,15.2,4.6,49.4,1.4,-38.6,71,55,10,30.39,30.03,20,12,20,0.00
2013-1-25,50.4,29.7,16.3,22.1,14.5,6.7,69,54,29,30.10,29.98,16,4,16,0.00
2013-1-26,68.0,34.7,19.6,42.1,20.7,14.1,89,58,39,30.16,29.85,17,10,17,0.79
2013-1-27,55.0,43.7,34.5,53.2,41.8,22.1,99,94,54,29.82,29.48,17,10,17,0.34
2013-1-28,72.9,58.8,38.3,60.9,53.2,38.0,99,83,52,29.62,29.37,30,13,30,0.01
2013-1-29,68.4,55.8,36.0,62.0,52.4,35.2,99,90,39,30.35,29.30,29,16,40,0.27
2013-1-30,32.4,23.9,21.9,32.1,19.0,13.7,99,82,66,30.17,29.77,29,5,29,0.04
2013-1-31,19.0,11.8,2.7,14.2,3.4,-5.2,82,69,57,30.69,30.19,31,12,31,0.00
2013-2-1,24.4,16.2,-1.5,14.1,6.7,-6.9,82,66,54,30.68,30.39,21,11,21,0.00
2013-2-7,77.2,66.1,54.5,45.3,35.0,14.3,69,36,10,30.12,29.90,16,6,16,0.00
2013-2-8,79.5,63.2,48.2,44.7,34.3,21.1,71,39,12,30.25,29.89,24,10,24,0.00
2013-2-9,66.0,51.1,34.2,37.8,28.9,20.8,94,48,18,30.40,30.27,17,6,17,0.00
2013-2-10,74.5,59.8,48.6,38.8,31.0,14.3,61,38,10,30.40,30.17,9,5,9,0.00
2013-2-11,77.0,68.1,59.4,59.7,52.2,36.9,95,61,27,30.15,29.83,17,7,17,0.06
2013-2-12,89.1,74.0,61.3,64.5,61.0,54.4,99,67,37,30.06,29.85,11,5,11,0.01
2013-2-13,81.5,51.3,40.1,54.7,28.1,18.6,74,42,23,30.15,29.82,20,8,20,0.00
2013-2-14,44.6,39.8,36.3,31.6,29.0,24.4,77,65,54,30.02,29.84,22,10,22,0.00
2013-2-15,32.0,25.1,15.4,24.8,15.3,11.0,86,67,55,30.41,30.22,20,12,20,0.00
2013-2-16,36.0,26.6,16.0,22.9,17.9,13.2,93,71,41,30.35,30.10,14,7,14,0.00
2013-2-17,58.1,41.5,25.3,31.8,26.1,20.4,82,57,33,30.09,29.69,18,10,18,0.00
2013-2-18,50.9,34.4,23.4,35.0,25.1,12.8,85,69,48,30.09,29.59,43,17,43,0.04
2013-2-19,28.9,20.5,12.6,16.1,5.8,-0.1,78,55,30,30.39,30.09,28,13,28,0.00
2013-2-20,25.5,16.3,7.5,9.2,4.6,0.0,76,60,45,30.42,30.25,20,9,20,0.00
2013-2-21,29.1,21.0,16.5,24.7,17.3,8.7,99,86,56,30.27,29.82,36,16,36,0.00
2013-2-22,26.2,22.8,19.8,22.7,19.3,17.8,99,87,75,30.03,29.82,23,12,23,0.00
2013-2-23,38.3,29.0,13.5,21.3,17.8,8.5,82,64,47,30.04,29.95,17,9,18,0.00
2013-2-24,47.1,32.3,19.0,26.6,22.2,15.2,91,68,41,30.08,29.99,15,7,16,0.00
2013-2-25,38.1,34.1,28.4,29.8,26.7,23.5,82,74,67,30.06,29.81,24,10,24,0.00
2013-2-26,35.2,31.6,28.6,33.4,30.3,27.6,99,95,75,29.90,29.68,32,15,32,0.01
2013-2-27,35.2,30.0,26.4,28.5,26.3,23.7,99,87,67,30.07,29.87,30,16,30,0.01
2013-2-28,34.5,29.5,26.1,25.9,23.9,21.9,85,80,68,30.23,30.07,28,12,28,0.00
2013-3-1,33.3,27.1,21.2,24.2,21.6,17.3,89,80,61,30.36,30.21,19,9,20,0.00
2013-3-2,43.3,27.9,21.6,21.7,17.7,14.7,77,66,37,30.39,30.20,14,6,14,0.12
2013-3-3,43.2,32.5,23.2,27.5,22.3,18.1,82,66,49,30.20,29.84,27,12,27,0.00
2013-3-4,50.0,37.6,32.5,33.9,28.8,20.8,99,71,51,30.01,29.74,23,10,23,0.01
2013-3-5,34.7,30.0,26.2,33.9,21.1,15.4,99,70,62,30.38,30.00,40,20,40,0.24
2013-3-6,46.0,29.6,19.0,24.1,19.6,14.9,85,67,34,30.46,30.32,21,6,22,0.00
2013-3-7,43.5,32.0,20.8,29.9,23.7,17.0,86,72,53,30.34,30.20,21,12,21,0.00
2013-3-8,51.8,40.6,28.4,38.4,31.9,22.7,84,72,53,30.26,30.01,24,14,24,0.00
2013-3-9,51.8,45.4,41.2,51.4,44.2,35.0,99,96,82,30.01,29.63,21,10,21,0.98
2013-3-10,53.1,37.0,24.8,52.8,36.0,24.5,99,96,86,29.91,29.61,30,15,30,0.05
2013-3-11,35.2,27.7,23.5,25.2,22.1,19.8,94,80,59,30.05,29.87,27,12,27,0.00
2013-3-12,27.5,26.1,24.4,22.9,21.3,20.0,86,82,78,30.13,30.03,11,4,11,0.00
2013-3-13,45.5,32.1,21.6,22.3,19.9,17.5,86,63,36,30.49,30.34,14,6,14,0.00
2013-3-14,70.5,48.4,32.0,38.7,31.0,23.1,77,54,28,30.34,30.10,17,8,17,0.00
2013-3-15,82.0,58.3,38.8,43.7,38.0,23.5,99,58,12,30.14,29.71,22,8,22,0.00
2013-3-16,50.9,36.8,31.5,44.3,29.5,25.9,97,75,65,30.17,29.79,24,13,27,0.00
2013-3-17,41.9,33.2,26.8,32.1,26.7,22.4,94,77,59,30.17,29.82,24,15,24,0.00
2013-3-18,47.7,37.8,27.0,36.6,25.8,13.8,99,67,28,30.10,29.79,37,12,37,0.32
2013-3-19,46.2,35.2,26.8,34.1,20.4,6.5,99,58,21,30.29,30.09,21,7,21,0.00
2013-3-20,37.6,27.7,17.8,31.7,8.3,-4.9,98,48,18,30.42,30.17,25,12,26,0.00
2013-3-21,32.4,26.5,19.6,18.6,11.8,5.2,66,54,40,30.18,29.96,17,9,17,0.00
2013-3-22,30.7,30.1,29.8,19.0,18.5,16.8,63,62,57,30.03,30.01,6,3,6,0.00
2013-3-23,44.1,35.1,29.3,34.2,27.0,21.9,99,75,44,30.11,29.97,25,13,25,0.04
2013-3-24,31.6,27.6,24.4,29.4,24.7,20.2,99,89,70,30.09,29.95,33,17,33,0.07
2013-3-25,32.9,27.9,24.4,27.9,23.8,20.7,99,85,71,30.35,30.06,30,15,30,0.00
2013-3-26,45.5,30.8,20.1,27.1,21.7,18.0,92,70,44,30.42,30.32,16,6,17,0.00
2013-3-27,52.9,35.7,25.0,35.0,27.4,19.2,86,73,50,30.35,30.24,20,8,20,0.02
2013-3-28,64.2,47.5,33.3,39.5,33.8,26.4,84,62,32,30.30,30.19,16,8,16,0.00
2013-3-29,69.8,53.8,36.9,39.4,33.2,20.3,90,52,17,30.28,30.14,61,9,61,0.00
2013-3-30,66.6,52.3,49.1,56.0,43.8,33.0,99,74,51,30.16,29.93,17,7,17,0.07
2013-3-31,60.6,57.8,47.7,44.5,36.3,31.3,88,46,35,30.01,30.00,26,15,26,0.06
2013-4-1,45.1,37.2,27.3,18.9,15.6,13.1,62,42,28,30.34,30.27,17,9,17,0.00
2013-4-2,56.1,43.9,20.7,22.7,16.6,10.2,82,36,18,30.40,30.29,14,5,15,0.00
2013-4-3,53.8,40.8,28.4,28.6,22.0,19.3,75,50,27,30.42,30.28,17,7,17,0.00
2013-4-4,67.1,50.2,31.6,34.0,24.5,18.2,69,39,19,30.29,30.09,17,4,17,0.00
2013-4-5,70.7,55.1,38.5,41.2,36.2,31.4,77,51,29,30.23,29.87,26,12,26,0.00
2013-4-6,74.1,63.1,54.5,49.0,41.1,34.7,61,45,27,29.88,29.69,36,18,37,0.00
2013-4-7,78.1,61.3,45.9,56.0,43.6,38.1,99,55,25,29.93,29.73,24,7,24,0.77
2013-4-8,74.5,62.2,50.2,64.3,58.2,49.9,99,88,67,29.80,29.70,17,7,17,0.06
2013-4-9,77.4,65.8,46.9,63.7,58.8,46.3,99,79,58,29.85,29.69,27,13,27,0.00
2013-4-10,49.5,41.9,35.8,49.2,41.6,34.5,99,99,95,29.98,29.73,37,11,37,1.05
2013-4-11,39.0,34.3,32.9,38.4,31.8,29.4,99,91,87,29.82,29.75,21,14,21,0.00
2013-4-12,48.0,38.6,32.4,33.6,30.6,26.4,87,74,56,30.06,29.75,22,12,22,0.02
2013-4-13,59.0,44.2,28.4,40.4,33.5,26.5,97,68,45,30.10,29.76,23,9,23,0.00
2013-4-14,70.0,58.3,44.6,56.5,44.3,30.1,87,61,35,29.76,29.50,41,14,41,0.56
2013-4-15,54.7,46.1,41.7,33.7,30.5,25.3,71,55,38,30.08,29.75,21,8,21,0.00
2013-4-16,47.5,42.0,35.1,34.7,32.1,29.2,88,68,55,30.23,30.06,22,12,22,0.00
2013-4-17,54.5,44.8,41.5,46.9,42.7,34.3,99,93,67,30.17,29.67,32,13,32,1.02
2013-4-18,46.9,37.8,33.6,46.7,35.0,26.7,99,90,71,29.94,29.63,32,18,32,0.52
2013-4-19,50.7,39.7,30.7,28.0,24.3,18.2,80,57,30,30.06,29.90,34,18,34,1.94
2013-4-21,44.8,44.8,44.8,22.0,22.0,22.0,40,40,40,30.06,30.06,8,8,15,1.94
2013-4-22,68.2,51.6,40.1,53.3,46.0,22.0,99,84,40,30.06,29.66,23,10,23,0.28
2013-4-23,42.8,35.5,30.4,39.7,32.7,22.9,99,90,69,29.89,29.76,28,12,28,0.34
2013-4-24,55.9,42.9,26.8,37.1,28.6,22.5,88,60,33,29.95,29.83,27,10,27,0.00
2013-4-25,68.9,54.4,36.9,40.7,34.9,24.0,84,52,23,30.01,29.83,23,8,23,0.00
2013-4-26,59.0,54.0,49.8,50.1,46.1,40.0,93,75,55,29.94,29.84,26,12,27,0.00
2013-4-27,62.6,52.7,47.3,49.4,48.0,47.0,99,85,59,29.93,29.72,11,5,11,0.00
2013-4-28,77.2,60.6,41.7,55.4,49.9,41.5,99,72,40,29.72,29.49,22,9,23,0.00
2013-4-29,84.0,70.3,54.9,64.5,58.6,53.1,96,69,48,29.53,29.32,24,12,24,0.00
2013-4-30,85.1,75.6,66.9,57.8,53.7,49.6,58,47,36,29.54,29.33,38,18,38,0.00
2013-5-1,70.3,58.1,39.9,53.4,46.1,35.4,85,65,49,29.99,29.53,35,15,35,0.00
2013-5-2,40.5,36.6,32.7,35.4,34.3,29.6,99,92,82,30.14,29.99,27,12,29,1.22
2013-5-3,40.1,36.8,34.5,36.4,33.7,31.7,99,89,77,30.02,29.64,18,9,27,0.13
2013-5-4,51.6,42.6,34.0,50.3,41.9,33.0,99,97,86,29.78,29.56,14,8,24,0.21
2013-5-5,55.8,49.5,44.1,51.5,47.9,43.4,99,94,84,29.84,29.75,11,6,17,0.15
2013-5-6,52.3,50.8,49.6,51.9,50.5,49.4,99,99,97,29.84,29.78,10,5,14,0.00
2013-5-7,79.7,65.2,50.0,58.6,51.0,46.3,99,65,34,29.81,29.69,8,2,13,0.18
2013-5-8,76.3,68.3,54.1,60.4,57.1,48.3,91,68,51,29.72,29.61,18,6,24,0.18
2013-5-9,71.1,61.9,56.5,64.9,59.8,54.5,99,93,68,29.66,29.55,15,4,19,0.59
2013-5-10,70.7,59.1,51.6,56.9,52.0,44.7,99,80,48,29.78,29.65,12,5,19,0.01
2013-5-11,64.2,56.0,44.1,48.1,32.8,16.8,93,47,16,29.96,29.75,24,8,35,0.00
2013-5-12,44.4,42.2,38.5,28.1,26.3,24.6,60,53,47,29.97,29.95,2,1,4,0.00
2013-5-13,78.8,66.0,46.8,56.6,48.1,29.1,72,54,31,29.87,29.62,14,8,18,0.00
2013-5-14,95.0,80.1,62.1,57.6,49.8,36.1,79,40,15,29.62,29.45,24,11,32,0.00
2013-5-15,89.4,77.0,65.5,65.7,58.2,48.2,81,54,34,29.61,29.50,16,5,23,0.00
2013-5-16,84.0,73.9,61.9,69.5,62.8,58.3,99,71,44,29.62,29.51,14,5,21,0.00
2013-5-17,83.8,72.3,60.1,65.3,61.9,59.1,99,72,48,29.66,29.58,11,4,14,0.15
2013-5-18,85.5,72.7,62.1,67.4,62.6,59.3,97,73,48,29.66,29.54,15,5,20,0.00
2013-5-21,75.9,67.0,59.2,54.9,50.4,42.1,80,56,39,30.29,29.89,19,9,30,0.00
2013-5-22,66.2,59.2,53.1,53.3,50.0,48.1,86,72,58,30.14,29.92,15,7,22,0.00
2013-5-23,72.1,60.9,55.0,54.1,50.1,45.7,86,69,42,30.43,30.14,13,5,18,0.00
2013-5-24,73.8,62.2,48.9,53.8,47.6,43.1,95,62,34,30.52,30.31,17,6,25,0.00
2013-5-25,86.2,71.0,61.3,66.2,57.4,43.1,83,63,46,30.37,30.19,21,9,26,0.00
2013-5-26,85.1,74.8,65.7,69.6,66.6,61.7,99,77,58,30.25,30.06,19,8,24,0.00
2013-5-27,79.9,69.6,60.3,74.2,64.3,56.2,99,84,67,30.17,29.86,27,10,38,1.80
2013-5-28,82.8,71.4,60.6,74.6,68.7,56.7,99,92,70,30.04,29.84,30,8,37,2.35
2013-5-29,82.8,73.7,62.1,70.9,66.1,61.6,99,78,63,29.99,29.82,24,11,34,0.01
2013-5-30,75.4,66.8,59.0,67.9,63.8,58.7,99,91,65,29.93,29.71,21,9,30,0.51
2013-5-31,80.2,68.7,63.7,67.7,64.2,60.6,99,86,57,29.98,29.84,19,5,26,0.02
2013-6-1,68.4,62.4,57.0,67.4,54.1,48.4,99,75,58,30.18,29.91,16,7,23,0.00
2013-6-2,68.7,59.0,53.6,53.9,48.2,42.8,96,69,43,30.30,30.19,11,5,17,0.00
2013-6-3,74.7,62.9,46.6,55.2,50.0,44.9,99,65,43,30.27,30.09,16,5,20,0.04
2013-6-4,79.3,66.3,60.4,66.1,58.6,53.6,86,77,62,30.18,30.10,16,8,24,0.21
2013-6-5,69.1,64.6,59.9,66.3,63.5,42.1,99,96,39,30.04,29.88,11,3,17,0.91
2013-6-6,75.6,65.1,53.2,59.8,54.1,47.7,99,71,40,29.93,29.87,10,3,15,0.01
2013-6-7,75.9,64.1,52.9,59.6,52.2,45.7,99,69,36,29.96,29.86,12,4,18,0.00
2013-6-8,80.1,67.5,54.0,64.1,55.2,46.0,99,67,43,29.89,29.69,19,7,27,0.54
2013-6-9,72.1,66.2,61.0,71.0,60.3,56.8,99,83,61,29.78,29.71,17,6,22,0.37
2013-6-10,85.8,74.6,61.0,65.0,62.1,56.8,99,67,40,29.85,29.75,8,4,12,0.00
2013-6-11,92.3,79.1,68.4,66.5,63.1,56.3,84,60,31,29.81,29.66,25,9,31,0.00
2013-6-12,92.8,82.9,69.3,69.9,66.2,54.6,75,58,38,29.91,29.67,24,11,30,0.00
2013-6-13,88.0,71.2,60.6,62.5,57.2,52.7,81,63,32,30.02,29.82,28,5,36,0.08
2013-6-14,86.4,74.9,63.5,69.2,63.0,57.3,86,68,47,29.99,29.82,21,7,27,0.01
2013-6-15,87.8,74.5,66.4,74.1,67.1,61.4,99,79,49,29.91,29.84,20,6,26,0.43
2013-6-16,85.6,73.9,64.6,74.8,68.4,64.3,99,85,57,29.93,29.87,10,3,14,0.01
2013-6-17,91.2,76.3,66.7,75.2,66.4,53.9,99,76,36,29.95,29.86,10,3,13,0.00
2013-6-18,85.6,74.5,65.7,66.0,61.1,50.9,94,65,34,30.03,29.91,13,3,18,0.01
2013-6-19,87.6,76.2,64.0,66.8,63.5,56.9,99,68,42,29.99,29.89,14,4,17,0.00
2013-6-20,88.9,79.8,68.9,72.4,69.1,64.3,97,71,54,29.95,29.82,22,8,31,0.00
2013-6-21,93.0,82.6,75.7,74.6,71.0,68.0,89,69,46,29.91,29.82,24,12,34,0.00
2013-6-22,91.8,83.1,73.2,72.1,67.5,61.6,81,60,43,29.94,29.77,24,9,30,0.00
2013-6-23,82.6,75.5,67.1,73.9,68.7,61.1,95,80,66,29.93,29.69,26,9,38,0.50
2013-6-24,85.5,77.0,66.6,73.9,70.0,65.0,99,80,52,29.99,29.71,25,7,36,0.90
2013-6-25,90.5,80.9,74.3,74.9,68.4,64.3,85,66,54,29.78,29.68,25,14,36,0.19
2013-6-26,94.5,84.1,75.9,73.4,68.7,63.5,92,62,39,29.84,29.61,16,6,22,0.00
2013-6-27,82.6,75.5,68.7,74.6,70.2,63.7,99,84,60,29.96,29.82,22,4,30,0.06
2013-6-28,86.0,77.4,67.1,71.2,61.2,46.4,99,63,27,29.89,29.80,18,6,27,0.01
2013-6-29,79.5,70.2,63.0,64.4,57.2,52.3,95,64,40,29.85,29.77,20,7,32,0.22
2013-6-30,80.2,69.9,57.7,58.0,54.3,50.4,97,60,38,30.00,29.85,13,5,23,0.00
2013-7-1,83.8,74.6,55.4,54.9,49.0,40.2,89,44,23,30.08,30.00,14,6,21,0.00
2013-7-2,70.7,68.3,66.6,64.6,61.8,58.5,91,80,72,30.00,29.99,3,0,5,0.18
2013-7-3,87.1,74.6,61.3,62.0,55.5,39.9,86,53,26,30.01,29.92,16,4,21,0.00
2013-7-4,71.4,61.6,58.3,58.8,56.0,54.6,92,82,59,30.00,29.94,7,2,10,0.00
2013-7-5,88.7,76.9,64.2,64.4,59.1,56.3,81,57,35,29.93,29.83,12,6,16,0.00
2013-7-6,89.4,81.8,68.2,65.5,62.3,58.5,79,53,39,29.90,29.82,19,11,26,0.00
2013-7-7,91.6,82.5,71.8,68.5,65.9,62.4,79,58,41,29.89,29.83,18,8,24,0.00
2013-7-8,93.4,83.7,76.3,73.9,67.8,59.9,76,59,47,29.95,29.88,17,6,24,0.00
2013-7-9,99.7,85.7,75.4,78.6,72.0,66.7,90,65,37,29.95,29.80,15,5,20,0.00
2013-7-10,90.0,80.5,70.5,79.6,66.0,55.0,99,65,34,30.01,29.83,29,5,46,0.35
2013-7-11,92.8,76.0,62.2,64.5,57.0,48.9,94,56,29,30.05,29.93,13,5,17,0.00
2013-7-12,88.7,77.7,63.5,62.1,58.4,55.8,86,54,35,30.00,29.91,14,5,20,0.00
2013-7-13,79.9,71.7,68.0,60.8,57.2,55.4,68,61,50,29.98,29.94,11,5,15,0.00
2013-7-14,88.2,80.9,64.8,61.6,56.3,48.2,89,45,26,30.08,29.96,15,6,24,0.00
2013-7-15,90.5,78.8,68.4,67.7,64.0,58.3,87,62,38,30.14,30.05,12,5,17,0.00
2013-7-16,76.6,74.3,72.3,67.1,66.1,65.4,83,75,69,30.13,30.12,4,2,6,0.00
2013-7-29,66.9,65.3,63.7,66.5,64.7,59.7,99,98,84,30.03,29.94,14,6,17,1.16
2013-7-30,86.4,72.6,66.4,75.0,69.5,66.1,99,91,56,30.02,29.93,9,3,13,0.09
2013-7-31,88.9,72.4,65.5,72.4,67.2,60.6,99,86,40,30.08,29.99,8,1,11,0.00
2013-8-1,89.8,77.9,65.7,70.8,65.7,57.6,99,70,35,30.04,29.90,9,3,14,0.02
2013-8-2,89.1,77.3,65.3,71.1,66.2,58.1,99,70,44,29.96,29.77,21,5,29,0.28
2013-8-3,87.3,74.9,64.2,68.9,61.7,55.9,89,65,40,30.10,29.91,12,6,16,0.00
2013-8-4,75.0,70.4,62.6,68.7,60.1,51.9,95,70,56,30.11,29.97,12,5,17,0.02
2013-8-5,86.4,75.6,67.5,74.6,70.8,67.2,99,86,59,29.99,29.76,12,3,16,0.00
2013-8-6,90.5,79.9,69.8,76.9,72.1,68.9,99,79,52,29.85,29.74,14,3,17,0.00
2013-8-7,89.1,78.4,69.1,76.8,68.2,56.7,99,74,37,29.92,29.73,10,3,15,0.00
2013-8-8,79.7,70.4,64.4,69.2,63.5,60.1,99,80,57,29.96,29.88,11,3,14,0.00
2013-8-9,87.3,73.9,65.1,68.8,64.6,58.3,99,75,38,30.06,29.94,8,2,9,0.00
2013-8-10,88.0,74.3,60.8,66.3,58.2,48.9,99,62,30,30.15,30.03,11,3,18,0.00
2013-8-11,88.0,76.0,62.6,66.7,61.8,56.1,97,64,38,30.08,29.94,13,4,17,0.00
2013-8-12,89.8,73.4,66.0,75.0,69.2,55.1,99,88,38,29.99,29.91,22,2,29,0.37
2013-8-13,83.8,71.7,62.1,68.1,58.5,48.7,99,68,30,30.09,29.99,10,3,14,0.01
2013-8-14,82.9,69.5,57.6,56.5,52.8,43.1,91,59,26,30.15,30.03,9,3,13,0.00
2013-8-15,72.5,64.7,60.6,65.6,57.5,53.3,99,78,56,30.08,29.99,11,4,17,0.41
2013-8-16,78.6,67.9,61.7,56.4,53.4,48.0,80,62,35,30.13,30.02,10,4,14,0.00
2013-8-17,82.6,70.8,53.2,57.3,52.3,45.6,99,55,29,30.16,30.06,11,2,15,0.00
2013-8-18,83.8,71.8,58.6,60.2,55.8,52.0,89,59,35,30.14,30.02,14,3,18,0.00
2013-8-19,86.0,73.6,62.1,65.2,62.1,57.0,99,70,39,30.07,29.94,14,5,20,0.00
2013-8-20,89.6,78.0,66.9,65.8,63.5,58.5,91,64,36,30.00,29.92,16,6,21,0.00
2013-8-21,94.3,79.5,67.8,68.6,65.6,60.6,95,65,37,30.01,29.93,13,6,17,0.00
2013-8-22,91.6,79.8,69.3,72.0,68.4,65.3,99,70,44,30.04,29.97,11,3,14,0.00
2013-8-23,92.7,80.6,69.4,72.1,66.6,55.3,99,66,34,30.05,29.97,14,4,18,0.00
2013-8-24,93.2,81.5,71.2,71.4,67.6,62.8,93,65,39,30.08,29.99,17,6,24,0.00
2013-8-25,94.3,81.8,69.8,70.8,67.6,63.7,94,65,38,30.14,30.05,16,6,23,0.00
2013-8-26,96.3,83.7,71.2,71.2,67.5,60.0,99,62,31,30.10,29.98,17,7,22,0.00
2013-8-27,95.5,83.9,73.0,68.3,63.7,58.2,84,54,31,29.99,29.90,18,8,24,0.00
2013-8-28,95.0,82.7,71.2,68.2,63.9,53.2,79,56,28,30.00,29.93,14,5,20,0.00
2013-8-29,97.0,84.0,72.5,71.5,67.9,60.2,92,61,30,29.99,29.88,17,4,21,0.00
2013-8-30,100.8,86.9,74.7,68.5,63.8,53.3,77,50,21,29.90,29.77,14,5,19,0.00
2013-8-31,92.7,80.8,72.5,75.9,71.4,65.2,99,75,49,29.84,29.74,9,2,11,0.00
2013-9-1,85.5,75.3,65.7,74.4,64.8,53.4,99,74,36,29.93,29.72,23,6,34,0.00
2013-9-2,83.8,69.8,58.3,61.6,55.9,40.9,99,66,24,30.03,29.92,12,3,19,0.00
2013-9-3,89.6,71.2,53.4,57.4,50.4,33.3,99,56,16,30.07,29.98,8,2,11,0.00
2013-9-4,89.8,75.9,61.7,62.1,54.7,42.2,83,52,21,30.14,30.00,8,2,13,0.00
2013-9-5,90.0,76.2,64.2,62.3,56.0,40.7,82,53,18,30.16,30.06,11,2,13,0.00
2013-9-6,91.6,78.3,67.1,60.7,58.1,54.3,77,52,29,30.08,29.92,13,4,17,0.00
2013-9-7,99.7,83.2,70.0,67.3,61.5,54.6,75,51,23,29.93,29.80,16,6,22,0.00
2013-9-8,95.4,82.3,73.0,73.2,64.5,55.2,85,57,28,29.86,29.75,8,3,11,0.00
2013-9-9,97.5,84.6,72.5,64.3,55.9,42.4,67,41,16,29.88,29.80,18,7,27,0.00
2013-9-10,96.8,82.7,69.4,60.6,57.0,47.8,71,45,20,30.00,29.88,20,8,27,0.00
2013-9-11,92.3,80.3,70.5,73.3,61.4,54.2,99,56,30,30.05,29.99,12,4,18,0.00
2013-9-12,85.5,74.3,63.5,73.5,55.7,33.2,99,61,17,30.12,30.03,12,4,18,0.00
2013-9-13,78.3,65.3,52.2,50.7,40.8,27.4,93,46,16,30.16,30.02,11,4,17,0.00
2013-9-14,79.7,66.2,52.3,47.7,41.1,34.9,62,42,21,30.06,29.88,15,5,20,0.00
2013-9-15,72.3,65.3,60.6,68.3,57.5,46.9,99,78,50,30.14,29.85,13,5,17,0.89
2013-9-16,65.3,59.6,56.3,58.3,53.6,48.3,92,81,67,30.24,30.13,13,7,17,0.02
2013-9-17,79.0,65.6,59.0,68.9,62.4,55.3,99,90,64,30.14,29.90,14,6,18,0.19
2013-9-18,89.4,81.1,65.5,71.2,65.3,7.7,99,61,40,30.05,29.79,27,11,33,1.10
2013-9-19,92.3,76.2,64.0,68.3,64.1,58.5,99,70,34,29.94,29.73,24,9,34,0.89
2013-9-20,71.4,62.1,54.3,63.6,45.8,36.0,99,58,29,30.06,29.91,15,6,24,0.00
2013-9-21,78.3,62.8,45.1,48.8,40.7,25.9,97,51,18,30.05,29.91,8,2,11,0.00
2013-9-22,78.8,64.8,52.3,47.5,45.0,38.1,83,52,25,29.99,29.87,17,6,22,0.00
2013-9-23,82.4,65.4,54.0,49.1,43.8,30.4,79,50,19,29.93,29.77,19,7,26,0.00
2013-9-24,77.7,68.5,59.4,59.5,52.8,46.9,99,59,38,29.88,29.76,8,2,11,0.00
2013-9-25,63.7,57.4,52.3,60.0,57.1,52.1,99,99,97,29.91,29.86,4,2,7,0.00
2013-9-26,84.7,72.3,61.3,61.8,56.4,49.0,99,63,29,29.91,29.83,16,8,21,0.00
2013-9-27,86.5,78.5,66.7,59.1,55.6,50.3,75,47,30,29.96,29.85,19,8,27,0.01
2013-9-28,72.0,64.2,52.3,67.5,52.0,42.1,99,66,39,30.08,29.78,19,6,28,0.17
2013-9-29,59.9,51.2,48.6,54.8,47.7,42.1,99,88,63,30.09,30.06,2,1,4,0.01
2013-9-30,79.5,63.8,49.8,54.7,46.4,32.9,99,59,19,29.95,29.80,12,5,16,0.00
2013-10-1,89.1,76.0,56.3,60.2,52.6,41.9,93,48,23,29.96,29.83,14,6,18,0.00
2013-10-2,84.7,73.1,63.0,66.0,61.8,55.8,98,70,39,30.00,29.87,15,4,20,0.00
2013-10-3,82.9,72.6,63.0,70.4,65.4,60.4,99,80,53,29.92,29.73,20,6,25,0.71
2013-10-4,75.6,75.6,75.6,64.3,64.3,64.3,68,68,68,29.81,29.81,5,5,9,0.00
2013-10-5,62.1,53.0,44.6,48.4,28.3,20.2,61,40,22,30.00,29.87,15,9,21,0.01
2013-10-6,52.9,48.0,42.1,43.1,36.5,28.4,85,65,52,29.98,29.81,14,9,23,0.02
2013-10-7,75.7,57.4,42.6,42.6,32.2,14.3,90,46,10,30.11,29.98,9,4,13,0.00
2013-10-8,76.5,62.0,48.9,42.0,34.9,21.5,69,42,13,30.08,29.98,19,8,24,0.00
2013-10-9,77.0,63.3,51.4,44.1,38.8,27.3,73,45,16,30.08,30.01,13,5,17,0.00
2013-10-10,78.6,64.4,51.1,45.4,42.6,39.1,78,48,25,30.05,29.87,14,5,18,0.00
2013-10-11,72.9,68.0,57.2,56.4,53.3,44.7,76,60,52,29.88,29.75,20,10,27,0.02
2013-10-12,95.7,89.4,80.8,69.1,65.7,61.4,64,47,33,30.08,30.00,14,8,21,0.01
2013-10-13,95.4,84.0,73.2,68.4,63.5,58.7,84,53,30,30.00,29.91,15,8,21,0.00
2013-10-14,94.5,82.8,71.2,67.9,64.0,56.4,79,56,29,30.01,29.95,11,5,17,0.00
2013-10-15,85.5,55.6,48.2,71.2,33.3,24.6,92,44,29,30.02,29.91,19,10,30,3.85
2013-10-16,57.6,50.0,45.7,35.7,31.0,26.2,63,49,31,30.03,29.93,15,6,21,0.00
2013-10-17,61.9,47.4,41.2,38.0,34.1,25.9,76,61,27,29.93,29.88,11,4,15,0.00
2013-10-18,47.8,41.1,35.4,32.4,27.8,13.2,88,62,26,30.08,29.97,11,5,16,0.00
2013-10-19,63.9,47.0,32.9,34.0,23.8,3.1,99,54,10,30.00,29.81,17,7,23,0.00
2013-10-20,66.4,54.0,41.9,32.8,25.7,8.1,67,38,10,29.92,29.74,10,6,14,0.00
2013-10-21,56.5,45.6,35.1,28.8,18.5,-0.5,72,39,10,30.07,29.93,11,5,16,0.00
2013-10-22,53.8,46.1,37.4,35.7,26.9,21.4,67,48,28,30.05,29.83,18,8,28,0.00
2013-10-23,53.2,43.7,28.8,30.2,22.9,10.7,89,47,19,30.14,29.99,9,4,14,0.00
2013-10-24,51.8,40.9,32.0,29.9,12.5,-6.7,76,38,10,30.36,30.13,15,4,21,0.00
2013-10-25,58.5,43.8,29.1,17.7,7.6,-3.8,58,28,10,30.38,30.07,19,6,27,0.00
2013-10-26,57.9,48.0,37.4,29.0,13.7,-2.4,59,29,10,30.13,29.99,14,6,24,0.00
2013-10-27,65.1,46.8,30.6,25.9,13.2,-3.4,79,34,10,30.11,29.86,17,6,23,0.00
2013-10-28,71.6,54.2,38.7,24.2,14.8,4.7,47,23,10,30.14,29.93,11,4,15,0.00
2013-10-29,64.9,54.3,46.8,59.2,47.6,14.6,99,83,22,30.15,29.90,14,6,18,0.22
2013-10-30,68.5,60.9,51.4,65.9,60.4,30.8,99,99,35,29.93,29.66,17,4,33,1.84
2013-10-31,58.8,46.5,40.3,51.9,45.7,22.2,99,98,35,29.69,29.51,13,5,18,0.26
2013-11-1,59.4,48.7,42.3,31.4,28.0,12.1,63,47,16,29.92,29.57,13,7,18,0.00
2013-11-2,57.7,47.3,39.9,31.6,22.3,4.1,67,42,12,30.13,29.92,14,7,19,0.00
2013-11-3,58.3,48.8,37.0,24.6,19.1,5.8,60,34,12,30.10,29.82,23,10,32,0.02
2013-11-4,59.0,54.1,47.5,40.5,34.4,22.4,66,48,29,30.05,29.82,15,7,22,0.01
2013-11-5,64.9,54.7,51.1,64.7,53.1,41.3,99,95,66,30.06,29.83,15,8,22,0.18
2013-11-11,50.4,33.2,21.2,39.4,11.5,-1.8,66,40,29,30.41,29.93,19,12,30,0.00
2013-11-12,36.7,23.5,12.9,1.8,-9.4,-24.4,56,28,10,30.58,30.36,15,4,23,0.00
2013-11-13,51.3,35.1,18.7,1.6,-7.3,-17.2,40,19,10,30.36,29.84,21,11,28,0.00
2013-11-14,39.2,38.0,37.2,-2.3,-6.7,-12.9,18,14,10,29.84,29.76,19,12,27,0.00
2013-11-15,59.5,47.6,36.7,32.2,15.0,0.0,53,30,10,29.67,29.44,14,7,17,0.00
2013-11-16,71.4,60.9,48.6,57.8,43.5,33.1,99,56,25,29.44,29.11,26,14,34,0.20
2013-11-17,64.6,56.7,43.5,54.5,25.4,-0.4,72,35,10,29.78,29.02,23,11,32,0.04
2013-11-18,61.0,47.2,33.3,25.2,7.9,-6.1,72,25,10,30.01,29.79,10,4,14,0.00
2013-11-19,61.9,52.4,35.8,13.7,1.0,-4.4,39,13,10,29.97,29.69,21,10,27,0.00
2013-11-20,50.2,43.7,39.6,31.3,19.5,-6.5,71,43,10,29.71,29.58,24,8,32,0.34
2013-11-21,42.6,36.6,25.3,36.5,29.2,17.3,83,74,67,30.16,29.68,13,3,115,0.09
2013-11-22,27.1,23.0,18.5,18.3,10.5,5.4,76,58,50,30.35,30.16,0,0,0,0.00
2013-11-23,24.8,18.8,9.3,6.9,-6.2,-21.8,54,33,13,30.52,30.30,0,0,0,0.00
2013-11-24,27.7,19.3,8.4,-4.0,-13.7,-23.9,52,27,10,30.47,30.01,11,1,14,0.00
2013-11-25,41.9,32.4,25.9,13.1,-2.8,-17.5,47,23,10,30.01,29.85,16,6,21,0.00
2013-11-26,30.9,30.3,29.1,13.7,13.3,12.6,51,49,47,29.90,29.88,6,3,9,0.00
2013-11-27,33.1,23.6,11.3,-6.6,-15.7,-22.7,42,20,10,30.12,29.81,14,6,21,0.00
2013-11-28,37.9,29.1,22.6,2.4,-8.4,-21.0,35,21,10,30.19,29.81,14,6,18,0.00
2013-11-29,50.2,34.3,21.7,6.0,-0.7,-11.0,38,24,10,30.19,29.93,11,5,16,0.00
2013-11-30,57.4,45.6,33.1,18.3,5.2,-4.4,50,21,10,29.93,29.79,11,4,15,0.00
2013-12-1,59.9,41.3,26.8,20.9,6.6,-7.2,68,29,10,29.86,29.59,8,3,11,0.00
2013-12-2,62.4,45.1,35.4,35.0,16.6,-1.1,79,38,10,29.59,29.30,16,6,21,0.00
2013-12-3,59.7,45.0,37.0,44.2,29.8,5.0,100,66,12,29.35,29.24,13,5,16,0.00
2013-12-4,40.8,29.5,17.8,37.9,21.1,-19.5,99,77,17,29.78,29.28,21,9,28,0.05
2013-12-5,18.0,15.1,11.3,-4.8,-27.1,-32.8,37,13,10,30.11,29.75,20,10,27,0.00
2013-12-6,16.9,10.7,4.6,-30.3,-34.7,-39.2,15,10,10,30.37,30.10,15,7,23,0.00
2013-12-7,22.6,10.1,-2.7,-26.7,-31.1,-41.3,26,14,10,30.43,30.10,14,6,20,0.00
2013-12-8,22.3,16.6,12.0,3.0,-8.2,-33.2,50,35,10,30.11,29.70,14,5,18,0.00
2013-12-9,14.2,6.6,0.9,-4.1,-27.6,-42.6,44,21,10,30.09,29.86,14,5,20,0.00
2013-12-10,44.6,22.6,6.4,-9.8,-25.3,-35.5,15,10,10,30.00,29.85,17,7,23,0.00
2013-12-11,26.6,13.4,4.3,-5.8,-30.3,-40.2,25,12,10,30.33,29.92,16,4,21,0.00
2013-12-12,40.5,23.4,4.1,-11.9,-24.5,-40.2,14,10,10,30.26,29.85,17,6,22,0.00
2013-12-13,40.1,33.3,24.8,34.1,18.5,-19.9,100,61,10,29.86,29.58,13,5,19,0.02
2013-12-14,30.0,22.8,17.1,29.8,4.0,-11.6,100,47,23,29.92,29.66,17,8,25,0.00
2013-12-15,36.5,31.7,17.6,4.0,-6.7,-15.7,44,20,10,29.90,26.59,117,5,117,0.00
2013-12-16,46.0,30.2,21.7,26.1,10.0,-7.4,74,48,11,29.88,29.67,8,3,11,0.00
2013-12-17,42.8,34.5,27.5,12.8,-11.1,-21.4,52,15,10,29.99,29.87,15,4,21,0.00
2013-12-18,64.8,45.3,27.9,6.7,-7.8,-21.6,13,10,10,29.91,29.48,25,10,33,0.00
2013-12-19,55.4,45.9,34.0,20.4,9.1,-8.1,57,24,10,29.50,29.38,13,6,20,0.00
2013-12-20,34.0,22.2,18.5,26.1,10.7,4.0,78,61,56,29.66,29.46,15,7,22,0.00
2013-12-21,27.0,22.2,19.2,13.7,7.8,1.6,67,53,46,29.64,29.40,12,4,18,0.00
2013-12-22,23.4,17.5,6.4,14.7,-3.3,-25.0,70,43,16,30.08,29.47,0,0,0,0.01
2013-12-23,6.1,4.3,2.5,-24.1,-30.2,-39.6,23,18,10,30.22,30.07,0,0,0,0.00
2013-12-24,27.1,10.6,-5.6,12.3,-26.2,-41.0,53,18,10,30.26,29.90,14,5,20,0.00
2013-12-25,41.7,29.8,23.7,16.0,-3.0,-15.8,62,28,10,30.03,29.92,13,6,17,0.00
2013-12-26,46.4,32.7,20.5,4.5,-8.7,-19.0,44,19,10,30.01,29.86,17,7,21,0.00
2013-12-27,53.2,37.7,22.6,4.2,-7.1,-15.6,41,16,10,30.01,29.85,11,6,15,0.00
2013-12-28,55.0,45.1,29.5,0.1,-6.8,-15.5,25,11,10,29.84,29.57,23,10,30,0.01
2013-12-29,28.9,12.4,4.5,-7.6,-33.2,-39.9,20,10,10,30.04,29.70,21,10,34,0.01
2013-12-30,28.6,16.1,2.8,-21.0,-30.8,-41.2,10,10,10,30.02,29.85,13,6,18,0.00
2013-12-31,53.6,27.5,12.0,-1.6,-18.7,-31.5,20,12,10,30.01,29.71,21,6,26,0.00
2014-1-1,17.6,11.7,1.9,-18.4,-26.9,-42.6,23,16,10,30.05,29.78,17,9,23,0.00
2014-1-2,12.9,2.9,-3.8,-33.7,-41.1,-46.4,10,10,10,30.19,30.03,11,4,17,0.00